sensor_id;sensor_type;location;lat;lon;timestamp;temperature;humidity
11540;DHT22;5826;54.756;9.192;2023-12-22T00:00:44;5.70;76.00
11540;DHT22;5826;54.756;9.192;2023-12-22T00:03:13;5.60;75.20
11540;DHT22;5826;54.756;9.192;2023-12-22T00:05:38;5.60;75.80
11540;DHT22;5826;54.756;9.192;2023-12-22T00:08:04;5.50;77.60
11540;DHT22;5826;54.756;9.192;2023-12-22T00:10:30;5.50;76.50
11540;DHT22;5826;54.756;9.192;2023-12-22T00:12:55;5.60;75.40
11540;DHT22;5826;54.756;9.192;2023-12-22T00:15:21;5.50;74.80
11540;DHT22;5826;54.756;9.192;2023-12-22T00:17:46;5.50;75.10
11540;DHT22;5826;54.756;9.192;2023-12-22T00:20:12;5.50;76.10
11540;DHT22;5826;54.756;9.192;2023-12-22T00:22:39;5.50;75.20
11540;DHT22;5826;54.756;9.192;2023-12-22T00:25:05;5.50;75.50
11540;DHT22;5826;54.756;9.192;2023-12-22T00:27:32;5.50;76.80
11540;DHT22;5826;54.756;9.192;2023-12-22T00:29:57;5.50;76.60
11540;DHT22;5826;54.756;9.192;2023-12-22T00:32:23;5.60;76.30
11540;DHT22;5826;54.756;9.192;2023-12-22T00:34:48;5.50;76.30
11540;DHT22;5826;54.756;9.192;2023-12-22T00:37:14;5.50;78.00
11540;DHT22;5826;54.756;9.192;2023-12-22T00:39:40;5.60;77.70
11540;DHT22;5826;54.756;9.192;2023-12-22T00:42:05;5.60;78.70
11540;DHT22;5826;54.756;9.192;2023-12-22T00:44:31;5.60;79.00
11540;DHT22;5826;54.756;9.192;2023-12-22T00:46:56;5.60;79.10
11540;DHT22;5826;54.756;9.192;2023-12-22T00:49:22;5.70;79.00
11540;DHT22;5826;54.756;9.192;2023-12-22T00:51:47;5.60;79.20
11540;DHT22;5826;54.756;9.192;2023-12-22T00:54:13;5.60;77.90
11540;DHT22;5826;54.756;9.192;2023-12-22T00:56:38;5.60;79.50
11540;DHT22;5826;54.756;9.192;2023-12-22T00:59:04;5.60;79.50
11540;DHT22;5826;54.756;9.192;2023-12-22T01:01:29;5.60;80.10
11540;DHT22;5826;54.756;9.192;2023-12-22T01:03:55;5.70;79.80
11540;DHT22;5826;54.756;9.192;2023-12-22T01:06:20;5.60;77.90
11540;DHT22;5826;54.756;9.192;2023-12-22T01:08:46;5.60;78.90
11540;DHT22;5826;54.756;9.192;2023-12-22T01:11:18;5.60;78.80
11540;DHT22;5826;54.756;9.192;2023-12-22T01:13:43;5.60;79.60
11540;DHT22;5826;54.756;9.192;2023-12-22T01:16:09;5.70;79.80
11540;DHT22;5826;54.756;9.192;2023-12-22T01:18:35;5.70;78.60
11540;DHT22;5826;54.756;9.192;2023-12-22T01:21:00;5.70;80.40
11540;DHT22;5826;54.756;9.192;2023-12-22T01:23:26;5.70;80.30
11540;DHT22;5826;54.756;9.192;2023-12-22T01:25:51;5.70;80.10
11540;DHT22;5826;54.756;9.192;2023-12-22T01:28:17;5.80;80.00
11540;DHT22;5826;54.756;9.192;2023-12-22T01:30:42;5.80;78.70
11540;DHT22;5826;54.756;9.192;2023-12-22T01:33:08;5.80;79.10
11540;DHT22;5826;54.756;9.192;2023-12-22T01:35:33;5.80;77.70
11540;DHT22;5826;54.756;9.192;2023-12-22T01:37:59;5.70;77.00
11540;DHT22;5826;54.756;9.192;2023-12-22T01:40:25;5.80;77.40
11540;DHT22;5826;54.756;9.192;2023-12-22T01:42:50;5.80;77.90
11540;DHT22;5826;54.756;9.192;2023-12-22T01:45:16;5.90;77.40
11540;DHT22;5826;54.756;9.192;2023-12-22T01:47:42;5.90;77.20
11540;DHT22;5826;54.756;9.192;2023-12-22T01:50:08;5.90;77.30
11540;DHT22;5826;54.756;9.192;2023-12-22T01:52:37;5.90;77.80
11540;DHT22;5826;54.756;9.192;2023-12-22T01:55:03;5.90;80.80
11540;DHT22;5826;54.756;9.192;2023-12-22T01:57:29;5.80;83.00
11540;DHT22;5826;54.756;9.192;2023-12-22T01:59:56;5.60;84.30
11540;DHT22;5826;54.756;9.192;2023-12-22T02:02:22;5.50;86.10
11540;DHT22;5826;54.756;9.192;2023-12-22T02:04:48;5.30;86.30
11540;DHT22;5826;54.756;9.192;2023-12-22T02:07:14;5.10;87.40
11540;DHT22;5826;54.756;9.192;2023-12-22T02:09:39;5.10;88.10
11540;DHT22;5826;54.756;9.192;2023-12-22T02:12:05;5.00;88.50
11540;DHT22;5826;54.756;9.192;2023-12-22T02:14:30;5.00;89.00
11540;DHT22;5826;54.756;9.192;2023-12-22T02:19:45;5.00;89.60
11540;DHT22;5826;54.756;9.192;2023-12-22T02:22:12;5.00;89.50
11540;DHT22;5826;54.756;9.192;2023-12-22T02:24:38;5.00;89.60
11540;DHT22;5826;54.756;9.192;2023-12-22T02:29:45;5.00;90.30
11540;DHT22;5826;54.756;9.192;2023-12-22T02:32:17;5.00;90.30
11540;DHT22;5826;54.756;9.192;2023-12-22T02:34:43;4.90;90.30
11540;DHT22;5826;54.756;9.192;2023-12-22T02:37:10;4.80;90.30
11540;DHT22;5826;54.756;9.192;2023-12-22T02:39:36;4.70;90.40
11540;DHT22;5826;54.756;9.192;2023-12-22T02:42:03;4.70;90.20
11540;DHT22;5826;54.756;9.192;2023-12-22T02:44:30;4.60;89.40
11540;DHT22;5826;54.756;9.192;2023-12-22T02:46:56;4.60;88.10
11540;DHT22;5826;54.756;9.192;2023-12-22T02:49:22;4.60;87.70
11540;DHT22;5826;54.756;9.192;2023-12-22T02:51:47;4.50;88.20
11540;DHT22;5826;54.756;9.192;2023-12-22T02:54:13;4.50;87.80
11540;DHT22;5826;54.756;9.192;2023-12-22T02:56:38;4.50;87.80
11540;DHT22;5826;54.756;9.192;2023-12-22T02:59:04;4.60;87.00
11540;DHT22;5826;54.756;9.192;2023-12-22T03:01:29;4.60;87.50
11540;DHT22;5826;54.756;9.192;2023-12-22T03:03:55;4.50;88.30
11540;DHT22;5826;54.756;9.192;2023-12-22T03:06:20;4.50;86.40
11540;DHT22;5826;54.756;9.192;2023-12-22T03:08:46;4.50;82.30
11540;DHT22;5826;54.756;9.192;2023-12-22T03:11:11;4.60;81.40
11540;DHT22;5826;54.756;9.192;2023-12-22T03:13:37;4.70;81.60
11540;DHT22;5826;54.756;9.192;2023-12-22T03:16:02;4.70;82.70
11540;DHT22;5826;54.756;9.192;2023-12-22T03:18:28;4.70;82.00
11540;DHT22;5826;54.756;9.192;2023-12-22T03:20:53;4.80;82.10
11540;DHT22;5826;54.756;9.192;2023-12-22T03:23:19;4.80;83.20
11540;DHT22;5826;54.756;9.192;2023-12-22T03:25:44;4.90;83.20
11540;DHT22;5826;54.756;9.192;2023-12-22T03:28:10;5.00;84.30
11540;DHT22;5826;54.756;9.192;2023-12-22T03:30:35;4.90;85.50
11540;DHT22;5826;54.756;9.192;2023-12-22T03:33:03;4.80;86.40
11540;DHT22;5826;54.756;9.192;2023-12-22T03:35:28;4.60;86.80
11540;DHT22;5826;54.756;9.192;2023-12-22T03:37:54;4.50;87.50
11540;DHT22;5826;54.756;9.192;2023-12-22T03:40:19;4.30;88.00
11540;DHT22;5826;54.756;9.192;2023-12-22T03:42:44;4.20;88.50
11540;DHT22;5826;54.756;9.192;2023-12-22T03:45:10;4.20;88.90
11540;DHT22;5826;54.756;9.192;2023-12-22T03:47:35;4.90;89.00
11540;DHT22;5826;54.756;9.192;2023-12-22T03:50:01;4.20;87.70
11540;DHT22;5826;54.756;9.192;2023-12-22T03:52:26;4.30;86.80
11540;DHT22;5826;54.756;9.192;2023-12-22T03:54:52;4.40;84.70
11540;DHT22;5826;54.756;9.192;2023-12-22T03:57:17;4.40;86.00
11540;DHT22;5826;54.756;9.192;2023-12-22T03:59:43;4.50;87.10
11540;DHT22;5826;54.756;9.192;2023-12-22T04:02:09;4.50;88.60
11540;DHT22;5826;54.756;9.192;2023-12-22T04:04:37;4.50;89.10
11540;DHT22;5826;54.756;9.192;2023-12-22T04:07:03;4.40;89.30
11540;DHT22;5826;54.756;9.192;2023-12-22T04:09:28;4.30;89.30
11540;DHT22;5826;54.756;9.192;2023-12-22T04:11:54;4.30;89.20
11540;DHT22;5826;54.756;9.192;2023-12-22T04:14:20;4.30;89.00
11540;DHT22;5826;54.756;9.192;2023-12-22T04:16:45;4.30;87.90
11540;DHT22;5826;54.756;9.192;2023-12-22T04:19:11;4.40;87.50
11540;DHT22;5826;54.756;9.192;2023-12-22T04:21:36;4.40;85.30
11540;DHT22;5826;54.756;9.192;2023-12-22T04:24:02;4.30;84.40
11540;DHT22;5826;54.756;9.192;2023-12-22T04:26:28;4.40;84.30
11540;DHT22;5826;54.756;9.192;2023-12-22T04:28:53;4.40;82.00
11540;DHT22;5826;54.756;9.192;2023-12-22T04:31:19;4.40;81.40
11540;DHT22;5826;54.756;9.192;2023-12-22T04:33:44;4.50;80.00
11540;DHT22;5826;54.756;9.192;2023-12-22T04:36:10;4.50;79.20
11540;DHT22;5826;54.756;9.192;2023-12-22T04:38:35;4.50;81.30
11540;DHT22;5826;54.756;9.192;2023-12-22T04:41:01;4.60;80.90
11540;DHT22;5826;54.756;9.192;2023-12-22T04:43:26;4.60;81.50
11540;DHT22;5826;54.756;9.192;2023-12-22T04:45:52;4.60;81.40
11540;DHT22;5826;54.756;9.192;2023-12-22T04:48:17;4.60;81.30
11540;DHT22;5826;54.756;9.192;2023-12-22T04:50:43;4.70;82.00
11540;DHT22;5826;54.756;9.192;2023-12-22T04:53:08;4.70;81.80
11540;DHT22;5826;54.756;9.192;2023-12-22T04:55:34;4.70;80.80
11540;DHT22;5826;54.756;9.192;2023-12-22T04:57:59;4.80;80.20
11540;DHT22;5826;54.756;9.192;2023-12-22T05:00:25;4.80;80.10
11540;DHT22;5826;54.756;9.192;2023-12-22T05:02:50;4.80;78.10
11540;DHT22;5826;54.756;9.192;2023-12-22T05:05:16;4.90;79.20
11540;DHT22;5826;54.756;9.192;2023-12-22T05:07:42;4.90;78.60
11540;DHT22;5826;54.756;9.192;2023-12-22T05:10:07;4.90;78.90
11540;DHT22;5826;54.756;9.192;2023-12-22T05:12:33;4.90;79.30
11540;DHT22;5826;54.756;9.192;2023-12-22T05:14:59;4.90;80.20
11540;DHT22;5826;54.756;9.192;2023-12-22T05:17:25;4.80;81.40
11540;DHT22;5826;54.756;9.192;2023-12-22T05:19:50;4.80;82.60
11540;DHT22;5826;54.756;9.192;2023-12-22T05:22:16;4.70;82.50
11540;DHT22;5826;54.756;9.192;2023-12-22T05:24:41;4.60;81.60
11540;DHT22;5826;54.756;9.192;2023-12-22T05:27:07;4.60;82.30
11540;DHT22;5826;54.756;9.192;2023-12-22T05:29:33;4.60;81.50
11540;DHT22;5826;54.756;9.192;2023-12-22T05:31:59;5.00;80.70
11540;DHT22;5826;54.756;9.192;2023-12-22T05:34:25;4.60;80.60
11540;DHT22;5826;54.756;9.192;2023-12-22T05:36:50;4.60;80.90
11540;DHT22;5826;54.756;9.192;2023-12-22T05:39:16;4.60;82.60
11540;DHT22;5826;54.756;9.192;2023-12-22T05:41:42;4.60;82.30
11540;DHT22;5826;54.756;9.192;2023-12-22T05:44:07;4.60;82.60
11540;DHT22;5826;54.756;9.192;2023-12-22T05:46:36;4.50;82.70
11540;DHT22;5826;54.756;9.192;2023-12-22T05:49:03;4.40;83.40
11540;DHT22;5826;54.756;9.192;2023-12-22T05:51:29;4.40;83.50
11540;DHT22;5826;54.756;9.192;2023-12-22T05:53:54;4.30;84.00
11540;DHT22;5826;54.756;9.192;2023-12-22T05:56:20;4.30;84.50
11540;DHT22;5826;54.756;9.192;2023-12-22T05:58:47;4.20;83.90
11540;DHT22;5826;54.756;9.192;2023-12-22T06:01:17;4.20;85.20
11540;DHT22;5826;54.756;9.192;2023-12-22T06:03:46;4.20;84.90
11540;DHT22;5826;54.756;9.192;2023-12-22T06:06:12;4.30;85.30
11540;DHT22;5826;54.756;9.192;2023-12-22T06:08:38;4.30;85.70
11540;DHT22;5826;54.756;9.192;2023-12-22T06:11:04;4.30;87.20
11540;DHT22;5826;54.756;9.192;2023-12-22T06:13:30;4.20;87.90
11540;DHT22;5826;54.756;9.192;2023-12-22T06:15:55;4.10;88.20
11540;DHT22;5826;54.756;9.192;2023-12-22T06:18:21;4.10;88.30
11540;DHT22;5826;54.756;9.192;2023-12-22T06:20:46;4.00;88.10
11540;DHT22;5826;54.756;9.192;2023-12-22T06:23:12;3.90;87.60
11540;DHT22;5826;54.756;9.192;2023-12-22T06:25:37;3.90;87.50
11540;DHT22;5826;54.756;9.192;2023-12-22T06:28:03;3.90;87.10
11540;DHT22;5826;54.756;9.192;2023-12-22T06:30:29;3.90;86.60
11540;DHT22;5826;54.756;9.192;2023-12-22T06:32:55;3.90;86.10
11540;DHT22;5826;54.756;9.192;2023-12-22T06:35:21;4.00;86.20
11540;DHT22;5826;54.756;9.192;2023-12-22T06:37:49;4.00;86.00
11540;DHT22;5826;54.756;9.192;2023-12-22T06:40:15;4.10;86.50
11540;DHT22;5826;54.756;9.192;2023-12-22T06:42:40;4.10;86.50
11540;DHT22;5826;54.756;9.192;2023-12-22T06:45:06;4.10;86.50
11540;DHT22;5826;54.756;9.192;2023-12-22T06:47:32;4.20;86.80
11540;DHT22;5826;54.756;9.192;2023-12-22T06:49:57;4.20;87.10
11540;DHT22;5826;54.756;9.192;2023-12-22T06:52:23;4.30;87.40
11540;DHT22;5826;54.756;9.192;2023-12-22T06:54:48;4.40;87.30
11540;DHT22;5826;54.756;9.192;2023-12-22T06:57:14;4.40;89.00
11540;DHT22;5826;54.756;9.192;2023-12-22T06:59:40;4.20;89.80
11540;DHT22;5826;54.756;9.192;2023-12-22T07:02:05;4.10;90.40
11540;DHT22;5826;54.756;9.192;2023-12-22T07:04:31;4.00;90.70
11540;DHT22;5826;54.756;9.192;2023-12-22T07:06:57;3.90;90.70
11540;DHT22;5826;54.756;9.192;2023-12-22T07:11:50;3.80;90.40
11540;DHT22;5826;54.756;9.192;2023-12-22T07:14:17;3.80;90.40
11540;DHT22;5826;54.756;9.192;2023-12-22T07:16:43;3.80;90.30
11540;DHT22;5826;54.756;9.192;2023-12-22T07:19:08;3.80;90.30
11540;DHT22;5826;54.756;9.192;2023-12-22T07:21:34;3.80;90.30
11540;DHT22;5826;54.756;9.192;2023-12-22T07:24:00;3.90;89.50
11540;DHT22;5826;54.756;9.192;2023-12-22T07:26:26;3.90;88.20
11540;DHT22;5826;54.756;9.192;2023-12-22T07:28:54;3.90;87.00
11540;DHT22;5826;54.756;9.192;2023-12-22T07:31:20;4.00;87.60
11540;DHT22;5826;54.756;9.192;2023-12-22T07:33:46;4.00;87.80
11540;DHT22;5826;54.756;9.192;2023-12-22T07:36:11;4.00;87.90
11540;DHT22;5826;54.756;9.192;2023-12-22T07:38:37;4.00;87.50
11540;DHT22;5826;54.756;9.192;2023-12-22T07:41:04;4.10;88.00
11540;DHT22;5826;54.756;9.192;2023-12-22T07:43:30;4.10;88.50
11540;DHT22;5826;54.756;9.192;2023-12-22T07:45:55;4.50;89.10
11540;DHT22;5826;54.756;9.192;2023-12-22T07:48:21;4.00;89.40
11540;DHT22;5826;54.756;9.192;2023-12-22T07:50:46;4.00;89.30
11540;DHT22;5826;54.756;9.192;2023-12-22T07:53:12;4.00;89.30
11540;DHT22;5826;54.756;9.192;2023-12-22T07:55:37;4.40;89.90
11540;DHT22;5826;54.756;9.192;2023-12-22T07:58:06;4.00;90.00
11540;DHT22;5826;54.756;9.192;2023-12-22T08:00:32;4.10;89.80
11540;DHT22;5826;54.756;9.192;2023-12-22T08:02:58;4.10;89.00
11540;DHT22;5826;54.756;9.192;2023-12-22T08:05:24;4.10;89.00
11540;DHT22;5826;54.756;9.192;2023-12-22T08:07:49;4.10;88.00
11540;DHT22;5826;54.756;9.192;2023-12-22T08:10:15;4.20;87.20
11540;DHT22;5826;54.756;9.192;2023-12-22T08:12:41;4.20;87.00
11540;DHT22;5826;54.756;9.192;2023-12-22T08:15:08;4.20;86.40
11540;DHT22;5826;54.756;9.192;2023-12-22T08:17:36;4.30;83.30
11540;DHT22;5826;54.756;9.192;2023-12-22T08:20:03;4.20;83.70
11540;DHT22;5826;54.756;9.192;2023-12-22T08:22:29;4.20;83.20
11540;DHT22;5826;54.756;9.192;2023-12-22T08:24:54;4.20;82.60
11540;DHT22;5826;54.756;9.192;2023-12-22T08:27:20;4.20;82.70
11540;DHT22;5826;54.756;9.192;2023-12-22T08:29:45;4.20;83.80
11540;DHT22;5826;54.756;9.192;2023-12-22T08:32:11;4.20;83.50
11540;DHT22;5826;54.756;9.192;2023-12-22T08:34:36;4.20;83.90
11540;DHT22;5826;54.756;9.192;2023-12-22T08:37:02;4.20;84.00
11540;DHT22;5826;54.756;9.192;2023-12-22T08:39:27;4.20;84.40
11540;DHT22;5826;54.756;9.192;2023-12-22T08:41:53;4.20;85.60
11540;DHT22;5826;54.756;9.192;2023-12-22T08:44:19;4.20;86.20
11540;DHT22;5826;54.756;9.192;2023-12-22T08:46:45;4.20;86.30
11540;DHT22;5826;54.756;9.192;2023-12-22T08:49:10;4.20;86.50
11540;DHT22;5826;54.756;9.192;2023-12-22T08:51:36;4.20;88.20
11540;DHT22;5826;54.756;9.192;2023-12-22T08:54:02;4.40;89.00
11540;DHT22;5826;54.756;9.192;2023-12-22T08:56:29;4.50;87.80
11540;DHT22;5826;54.756;9.192;2023-12-22T08:58:55;4.40;87.70
11540;DHT22;5826;54.756;9.192;2023-12-22T09:01:21;4.50;88.50
11540;DHT22;5826;54.756;9.192;2023-12-22T09:03:47;4.50;87.80
11540;DHT22;5826;54.756;9.192;2023-12-22T09:06:17;4.50;88.10
11540;DHT22;5826;54.756;9.192;2023-12-22T09:08:43;4.50;88.60
11540;DHT22;5826;54.756;9.192;2023-12-22T09:11:11;4.70;86.50
11540;DHT22;5826;54.756;9.192;2023-12-22T09:13:37;4.60;86.70
11540;DHT22;5826;54.756;9.192;2023-12-22T09:16:03;4.60;87.80
11540;DHT22;5826;54.756;9.192;2023-12-22T09:18:28;4.60;87.50
11540;DHT22;5826;54.756;9.192;2023-12-22T09:20:54;4.60;87.60
11540;DHT22;5826;54.756;9.192;2023-12-22T09:23:19;4.70;87.40
11540;DHT22;5826;54.756;9.192;2023-12-22T09:25:46;4.70;86.60
11540;DHT22;5826;54.756;9.192;2023-12-22T09:28:12;4.70;85.70
11540;DHT22;5826;54.756;9.192;2023-12-22T09:30:37;4.70;84.70
11540;DHT22;5826;54.756;9.192;2023-12-22T09:33:03;4.70;84.10
11540;DHT22;5826;54.756;9.192;2023-12-22T09:35:29;4.80;81.90
11540;DHT22;5826;54.756;9.192;2023-12-22T09:37:55;4.80;82.30
11540;DHT22;5826;54.756;9.192;2023-12-22T09:40:20;4.80;82.10
11540;DHT22;5826;54.756;9.192;2023-12-22T09:42:48;4.80;82.80
11540;DHT22;5826;54.756;9.192;2023-12-22T09:45:16;4.70;83.20
11540;DHT22;5826;54.756;9.192;2023-12-22T09:47:44;4.60;84.90
11540;DHT22;5826;54.756;9.192;2023-12-22T09:50:11;4.50;85.80
11540;DHT22;5826;54.756;9.192;2023-12-22T09:52:38;4.40;87.20
11540;DHT22;5826;54.756;9.192;2023-12-22T09:55:07;4.40;87.70
11540;DHT22;5826;54.756;9.192;2023-12-22T09:57:33;4.40;87.50
11540;DHT22;5826;54.756;9.192;2023-12-22T09:59:59;4.40;87.40
11540;DHT22;5826;54.756;9.192;2023-12-22T10:02:25;4.40;88.80
11540;DHT22;5826;54.756;9.192;2023-12-22T10:04:53;4.40;87.70
11540;DHT22;5826;54.756;9.192;2023-12-22T10:07:19;4.70;88.00
11540;DHT22;5826;54.756;9.192;2023-12-22T10:09:46;4.40;87.20
11540;DHT22;5826;54.756;9.192;2023-12-22T10:12:13;4.40;88.10
11540;DHT22;5826;54.756;9.192;2023-12-22T10:14:40;4.40;89.00
11540;DHT22;5826;54.756;9.192;2023-12-22T10:17:06;4.40;88.20
11540;DHT22;5826;54.756;9.192;2023-12-22T10:19:32;4.50;89.00
11540;DHT22;5826;54.756;9.192;2023-12-22T10:21:57;4.60;88.30
11540;DHT22;5826;54.756;9.192;2023-12-22T10:24:44;4.60;88.40
11540;DHT22;5826;54.756;9.192;2023-12-22T10:27:16;4.70;87.90
11540;DHT22;5826;54.756;9.192;2023-12-22T10:29:53;4.80;86.40
11540;DHT22;5826;54.756;9.192;2023-12-22T10:32:20;4.70;86.30
11540;DHT22;5826;54.756;9.192;2023-12-22T10:34:47;4.80;86.20
11540;DHT22;5826;54.756;9.192;2023-12-22T10:37:13;4.80;85.80
11540;DHT22;5826;54.756;9.192;2023-12-22T10:39:38;4.80;86.20
11540;DHT22;5826;54.756;9.192;2023-12-22T10:42:05;5.00;86.20
11540;DHT22;5826;54.756;9.192;2023-12-22T10:44:30;4.80;86.00
11540;DHT22;5826;54.756;9.192;2023-12-22T10:46:57;4.90;85.40
11540;DHT22;5826;54.756;9.192;2023-12-22T10:49:24;5.00;86.10
11540;DHT22;5826;54.756;9.192;2023-12-22T10:51:50;5.00;84.80
11540;DHT22;5826;54.756;9.192;2023-12-22T10:54:17;5.10;85.80
11540;DHT22;5826;54.756;9.192;2023-12-22T10:56:42;5.20;86.00
11540;DHT22;5826;54.756;9.192;2023-12-22T10:59:09;5.20;84.30
11540;DHT22;5826;54.756;9.192;2023-12-22T11:01:36;5.30;83.80
11540;DHT22;5826;54.756;9.192;2023-12-22T11:04:08;5.40;83.40
11540;DHT22;5826;54.756;9.192;2023-12-22T11:06:35;5.40;84.60
11540;DHT22;5826;54.756;9.192;2023-12-22T11:09:06;5.50;86.00
11540;DHT22;5826;54.756;9.192;2023-12-22T11:11:38;5.50;84.80
11540;DHT22;5826;54.756;9.192;2023-12-22T11:14:07;5.50;85.10
11540;DHT22;5826;54.756;9.192;2023-12-22T11:16:35;5.50;85.70
11540;DHT22;5826;54.756;9.192;2023-12-22T11:19:02;5.50;86.40
11540;DHT22;5826;54.756;9.192;2023-12-22T11:21:28;5.60;84.40
11540;DHT22;5826;54.756;9.192;2023-12-22T11:23:54;5.60;82.60
11540;DHT22;5826;54.756;9.192;2023-12-22T11:26:22;5.70;83.60
11540;DHT22;5826;54.756;9.192;2023-12-22T11:28:49;5.80;83.90
11540;DHT22;5826;54.756;9.192;2023-12-22T11:31:15;5.80;85.20
11540;DHT22;5826;54.756;9.192;2023-12-22T11:33:45;5.80;86.70
11540;DHT22;5826;54.756;9.192;2023-12-22T11:36:15;5.80;86.80
11540;DHT22;5826;54.756;9.192;2023-12-22T11:38:42;5.70;87.20
11540;DHT22;5826;54.756;9.192;2023-12-22T11:41:12;5.60;87.40
11540;DHT22;5826;54.756;9.192;2023-12-22T11:43:40;5.40;88.10
11540;DHT22;5826;54.756;9.192;2023-12-22T11:46:06;5.10;88.90
11540;DHT22;5826;54.756;9.192;2023-12-22T11:48:32;5.00;90.10
11540;DHT22;5826;54.756;9.192;2023-12-22T11:50:58;4.70;90.10
11540;DHT22;5826;54.756;9.192;2023-12-22T11:53:25;4.40;90.50
11540;DHT22;5826;54.756;9.192;2023-12-22T11:56:00;4.20;91.20
11540;DHT22;5826;54.756;9.192;2023-12-22T12:01:14;4.00;92.00
11540;DHT22;5826;54.756;9.192;2023-12-22T12:06:37;4.00;92.20
11540;DHT22;5826;54.756;9.192;2023-12-22T12:09:05;4.10;92.20
11540;DHT22;5826;54.756;9.192;2023-12-22T12:14:40;4.40;91.80
11540;DHT22;5826;54.756;9.192;2023-12-22T12:17:08;4.50;91.30
11540;DHT22;5826;54.756;9.192;2023-12-22T12:19:38;4.60;91.10
11540;DHT22;5826;54.756;9.192;2023-12-22T12:22:04;4.80;90.80
11540;DHT22;5826;54.756;9.192;2023-12-22T12:24:30;4.90;90.60
11540;DHT22;5826;54.756;9.192;2023-12-22T12:26:56;5.10;90.20
11540;DHT22;5826;54.756;9.192;2023-12-22T12:29:22;5.00;90.00
11540;DHT22;5826;54.756;9.192;2023-12-22T12:31:48;4.90;90.20
11540;DHT22;5826;54.756;9.192;2023-12-22T12:34:14;4.90;90.60
11540;DHT22;5826;54.756;9.192;2023-12-22T12:36:43;4.90;91.20
11540;DHT22;5826;54.756;9.192;2023-12-22T12:39:08;4.80;90.80
11540;DHT22;5826;54.756;9.192;2023-12-22T12:41:40;4.90;90.70
11540;DHT22;5826;54.756;9.192;2023-12-22T12:44:07;5.00;89.80
11540;DHT22;5826;54.756;9.192;2023-12-22T12:46:38;5.10;88.30
11540;DHT22;5826;54.756;9.192;2023-12-22T12:49:08;5.30;87.70
11540;DHT22;5826;54.756;9.192;2023-12-22T12:51:43;5.30;86.20
11540;DHT22;5826;54.756;9.192;2023-12-22T12:54:10;5.40;86.10
11540;DHT22;5826;54.756;9.192;2023-12-22T12:56:45;5.30;84.50
11540;DHT22;5826;54.756;9.192;2023-12-22T12:59:14;5.30;84.50
11540;DHT22;5826;54.756;9.192;2023-12-22T13:01:40;5.30;87.20
11540;DHT22;5826;54.756;9.192;2023-12-22T13:04:06;5.20;85.00
11540;DHT22;5826;54.756;9.192;2023-12-22T13:06:32;5.20;85.30
11540;DHT22;5826;54.756;9.192;2023-12-22T13:08:58;5.10;84.20
11540;DHT22;5826;54.756;9.192;2023-12-22T13:11:26;5.10;84.10
11540;DHT22;5826;54.756;9.192;2023-12-22T13:13:52;5.00;84.50
11540;DHT22;5826;54.756;9.192;2023-12-22T13:16:20;5.00;85.10
11540;DHT22;5826;54.756;9.192;2023-12-22T13:18:47;5.00;84.60
11540;DHT22;5826;54.756;9.192;2023-12-22T13:21:13;5.00;83.40
11540;DHT22;5826;54.756;9.192;2023-12-22T13:23:40;5.00;83.70
11540;DHT22;5826;54.756;9.192;2023-12-22T13:26:05;5.00;84.60
11540;DHT22;5826;54.756;9.192;2023-12-22T13:28:31;5.10;84.10
11540;DHT22;5826;54.756;9.192;2023-12-22T13:30:56;5.10;83.30
11540;DHT22;5826;54.756;9.192;2023-12-22T13:33:22;5.10;84.00
11540;DHT22;5826;54.756;9.192;2023-12-22T13:35:56;5.10;84.80
11540;DHT22;5826;54.756;9.192;2023-12-22T13:38:22;5.10;85.20
11540;DHT22;5826;54.756;9.192;2023-12-22T13:40:47;5.10;85.60
11540;DHT22;5826;54.756;9.192;2023-12-22T13:43:13;5.10;84.90
11540;DHT22;5826;54.756;9.192;2023-12-22T13:45:39;5.10;85.50
11540;DHT22;5826;54.756;9.192;2023-12-22T13:48:05;5.00;86.50
11540;DHT22;5826;54.756;9.192;2023-12-22T13:50:31;5.00;87.30
11540;DHT22;5826;54.756;9.192;2023-12-22T13:53:07;4.90;87.60
11540;DHT22;5826;54.756;9.192;2023-12-22T13:55:33;4.80;88.50
11540;DHT22;5826;54.756;9.192;2023-12-22T13:58:02;4.80;89.30
11540;DHT22;5826;54.756;9.192;2023-12-22T14:00:29;4.80;89.60
11540;DHT22;5826;54.756;9.192;2023-12-22T14:02:55;4.70;89.30
11540;DHT22;5826;54.756;9.192;2023-12-22T14:05:21;4.70;89.60
11540;DHT22;5826;54.756;9.192;2023-12-22T14:07:47;4.80;90.80
11540;DHT22;5826;54.756;9.192;2023-12-22T14:10:13;4.80;89.70
11540;DHT22;5826;54.756;9.192;2023-12-22T14:12:40;4.70;89.70
11540;DHT22;5826;54.756;9.192;2023-12-22T14:15:09;4.90;90.50
11540;DHT22;5826;54.756;9.192;2023-12-22T14:17:35;4.60;89.90
11540;DHT22;5826;54.756;9.192;2023-12-22T14:20:00;4.60;89.80
11540;DHT22;5826;54.756;9.192;2023-12-22T14:22:26;4.60;89.70
11540;DHT22;5826;54.756;9.192;2023-12-22T14:24:52;4.60;89.40
11540;DHT22;5826;54.756;9.192;2023-12-22T14:27:18;4.60;89.60
11540;DHT22;5826;54.756;9.192;2023-12-22T14:29:47;4.60;89.60
11540;DHT22;5826;54.756;9.192;2023-12-22T14:32:12;4.60;88.90
11540;DHT22;5826;54.756;9.192;2023-12-22T14:34:40;4.60;88.90
11540;DHT22;5826;54.756;9.192;2023-12-22T14:37:06;4.60;89.50
11540;DHT22;5826;54.756;9.192;2023-12-22T14:39:31;4.60;89.00
11540;DHT22;5826;54.756;9.192;2023-12-22T14:41:58;4.60;89.30
11540;DHT22;5826;54.756;9.192;2023-12-22T14:44:24;4.60;89.90
11540;DHT22;5826;54.756;9.192;2023-12-22T14:46:49;4.60;89.90
11540;DHT22;5826;54.756;9.192;2023-12-22T14:49:15;4.60;89.30
11540;DHT22;5826;54.756;9.192;2023-12-22T14:51:41;4.60;89.80
11540;DHT22;5826;54.756;9.192;2023-12-22T14:54:07;4.60;88.60
11540;DHT22;5826;54.756;9.192;2023-12-22T14:56:33;4.60;87.10
11540;DHT22;5826;54.756;9.192;2023-12-22T14:58:59;4.60;88.30
11540;DHT22;5826;54.756;9.192;2023-12-22T15:01:25;4.50;88.90
11540;DHT22;5826;54.756;9.192;2023-12-22T15:03:50;4.40;89.30
11540;DHT22;5826;54.756;9.192;2023-12-22T15:06:16;4.40;90.10
11540;DHT22;5826;54.756;9.192;2023-12-22T15:08:42;4.20;90.40
11540;DHT22;5826;54.756;9.192;2023-12-22T15:11:07;4.20;90.60
11540;DHT22;5826;54.756;9.192;2023-12-22T15:13:34;4.20;90.80
11540;DHT22;5826;54.756;9.192;2023-12-22T15:16:04;4.20;90.80
11540;DHT22;5826;54.756;9.192;2023-12-22T15:18:30;4.10;90.60
11540;DHT22;5826;54.756;9.192;2023-12-22T15:20:55;4.10;90.50
11540;DHT22;5826;54.756;9.192;2023-12-22T15:23:21;4.10;90.50
11540;DHT22;5826;54.756;9.192;2023-12-22T15:25:46;4.10;90.40
11540;DHT22;5826;54.756;9.192;2023-12-22T15:28:12;4.00;90.50
11540;DHT22;5826;54.756;9.192;2023-12-22T15:30:37;4.00;90.50
11540;DHT22;5826;54.756;9.192;2023-12-22T15:33:03;4.00;90.50
11540;DHT22;5826;54.756;9.192;2023-12-22T15:35:29;4.00;90.80
11540;DHT22;5826;54.756;9.192;2023-12-22T15:37:54;4.00;90.50
11540;DHT22;5826;54.756;9.192;2023-12-22T15:40:20;3.90;90.50
11540;DHT22;5826;54.756;9.192;2023-12-22T15:42:45;3.90;90.80
11540;DHT22;5826;54.756;9.192;2023-12-22T15:45:11;3.90;90.90
11540;DHT22;5826;54.756;9.192;2023-12-22T15:47:37;3.90;90.80
11540;DHT22;5826;54.756;9.192;2023-12-22T15:50:03;4.00;91.10
11540;DHT22;5826;54.756;9.192;2023-12-22T15:52:29;4.00;90.90
11540;DHT22;5826;54.756;9.192;2023-12-22T15:54:55;4.00;90.70
11540;DHT22;5826;54.756;9.192;2023-12-22T15:57:20;4.00;90.80
11540;DHT22;5826;54.756;9.192;2023-12-22T15:59:46;4.00;91.00
11540;DHT22;5826;54.756;9.192;2023-12-22T16:02:12;4.00;90.80
11540;DHT22;5826;54.756;9.192;2023-12-22T16:04:37;4.10;90.70
11540;DHT22;5826;54.756;9.192;2023-12-22T16:07:03;4.10;90.70
11540;DHT22;5826;54.756;9.192;2023-12-22T16:09:28;4.10;90.70
11540;DHT22;5826;54.756;9.192;2023-12-22T16:11:54;4.20;90.60